createdAt,value
2018-08-12T00:00:16.655Z,69.5
2018-08-12T00:01:16.721Z,69.5
2018-08-12T00:02:16.995Z,69.2
2018-08-12T00:03:16.258Z,69.2
2018-08-12T00:04:16.529Z,69.2
2018-08-12T00:05:16.802Z,69.2
2018-08-12T00:06:17.092Z,69.3
2018-08-12T00:07:16.361Z,69.2
2018-08-12T00:08:16.641Z,69.2
2018-08-12T00:09:16.924Z,69.2
2018-08-12T00:10:17.190Z,69.1
2018-08-12T00:11:17.253Z,69.2
2018-08-12T00:12:16.531Z,69.1
2018-08-12T00:13:16.801Z,69.1
2018-08-12T00:14:17.113Z,69.0
2018-08-12T00:15:16.561Z,69.0
2018-08-12T00:16:16.909Z,69.2
2018-08-12T00:17:17.184Z,69.2
2018-08-12T00:18:16.448Z,69.2
2018-08-12T00:19:16.710Z,69.2
2018-08-12T00:20:17.001Z,69.1
2018-08-12T00:21:17.026Z,68.9
2018-08-12T00:22:16.301Z,69.2
2018-08-12T00:23:16.567Z,69.3
2018-08-12T00:24:17.144Z,69.5
2018-08-12T00:25:16.422Z,69.7
2018-08-12T00:26:16.696Z,69.8
2018-08-12T00:27:16.963Z,69.8
2018-08-12T00:28:17.227Z,70.2
2018-08-12T00:29:16.507Z,70.3
2018-08-12T00:30:16.791Z,70.5
2018-08-12T00:31:16.836Z,70.7
2018-08-12T00:32:17.115Z,70.9
2018-08-12T00:33:16.380Z,70.8
2018-08-12T00:34:16.655Z,70.2
2018-08-12T00:35:16.930Z,70.5
2018-08-12T00:36:17.173Z,70.5
2018-08-12T00:37:16.446Z,71.0
2018-08-12T00:38:16.712Z,71.2
2018-08-12T00:39:16.978Z,71.2
2018-08-12T00:40:17.286Z,71.3
2018-08-12T00:41:16.300Z,71.2
2018-08-12T00:42:16.565Z,71.4
2018-08-12T00:43:16.829Z,71.4
2018-08-12T00:44:17.236Z,71.5
2018-08-12T00:45:16.520Z,71.6
2018-08-12T00:46:16.797Z,71.7
2018-08-12T00:47:17.056Z,71.8
2018-08-12T00:48:16.314Z,71.8
2018-08-12T00:49:16.594Z,72.0
2018-08-12T00:50:16.866Z,71.8
2018-08-12T00:51:16.908Z,72.0
2018-08-12T00:52:17.184Z,71.9
2018-08-12T00:53:16.452Z,72.2
2018-08-12T00:54:16.728Z,72.2
2018-08-12T00:55:17.021Z,72.4
2018-08-12T00:56:16.291Z,72.5
2018-08-12T00:57:16.559Z,72.2
2018-08-12T00:58:16.836Z,72.2
2018-08-12T00:59:17.127Z,72.1
2018-08-12T01:00:16.412Z,72.2
2018-08-12T01:01:16.453Z,72.0
2018-08-12T01:02:16.719Z,72.3
2018-08-12T01:03:16.977Z,72.2
2018-08-12T01:04:17.252Z,72.1
2018-08-12T01:05:16.521Z,72.1
2018-08-12T01:06:16.799Z,72.2
2018-08-12T01:07:17.060Z,72.2
2018-08-12T01:08:16.332Z,72.4
2018-08-12T01:09:16.600Z,72.4
2018-08-12T01:10:16.888Z,72.6
2018-08-12T01:11:16.922Z,72.6
2018-08-12T01:12:17.185Z,72.5
2018-08-12T01:13:16.456Z,72.5
2018-08-12T01:14:16.724Z,72.7
2018-08-12T01:15:17.009Z,72.6
2018-08-12T01:16:16.276Z,72.6
2018-08-12T01:17:16.543Z,72.3
2018-08-12T01:18:16.811Z,72.1
2018-08-12T01:19:17.086Z,72.0
2018-08-12T01:20:16.360Z,72.2
2018-08-12T01:21:16.419Z,72.2
2018-08-12T01:22:16.693Z,72.5
2018-08-12T01:23:16.969Z,72.7
2018-08-12T01:24:17.233Z,72.8
2018-08-12T01:25:16.539Z,72.8
2018-08-12T01:26:16.808Z,72.8
2018-08-12T01:27:17.068Z,73.0
2018-08-12T01:28:16.360Z,73.1
2018-08-12T01:29:16.633Z,73.3
2018-08-12T01:30:16.904Z,73.5
2018-08-12T01:31:16.963Z,73.6
2018-08-12T01:32:17.233Z,73.5
2018-08-12T01:33:16.504Z,73.5
2018-08-12T01:34:16.773Z,73.5
2018-08-12T01:35:17.372Z,73.5
2018-08-12T01:36:16.650Z,73.6
2018-08-12T01:37:16.925Z,73.7
2018-08-12T01:38:17.200Z,73.2
2018-08-12T01:39:16.476Z,73.3
2018-08-12T01:40:16.770Z,73.4
2018-08-12T01:41:16.786Z,73.6
2018-08-12T01:42:17.046Z,73.6
2018-08-12T01:43:16.315Z,73.8
2018-08-12T01:44:16.583Z,73.5
2018-08-12T01:45:16.861Z,73.5
2018-08-12T01:46:17.579Z,73.8
2018-08-12T01:47:16.843Z,73.7
2018-08-12T01:48:17.112Z,74.0
2018-08-12T01:49:16.390Z,74.2
2018-08-12T01:50:16.685Z,74.3
2018-08-12T01:51:16.706Z,74.2
2018-08-12T01:52:16.979Z,74.6
2018-08-12T01:53:17.250Z,74.5
2018-08-12T01:54:16.525Z,74.5
2018-08-12T01:55:16.784Z,74.6
2018-08-12T01:56:17.056Z,74.6
2018-08-12T01:57:16.322Z,74.6
2018-08-12T01:58:16.596Z,74.8
2018-08-12T01:59:16.870Z,74.9
2018-08-12T02:00:17.155Z,74.8
2018-08-12T02:01:17.212Z,75.0
2018-08-12T02:02:16.482Z,74.9
2018-08-12T02:03:16.748Z,75.1
2018-08-12T02:04:17.020Z,75.0
2018-08-12T02:05:16.292Z,75.0
2018-08-12T02:06:16.566Z,75.4
2018-08-12T02:07:16.837Z,75.8
2018-08-12T02:08:17.106Z,76.0
2018-08-12T02:09:16.382Z,75.6
2018-08-12T02:10:16.667Z,75.5
2018-08-12T02:11:16.698Z,75.4
2018-08-12T02:12:16.965Z,75.2
2018-08-12T02:13:17.233Z,75.5
2018-08-12T02:14:16.521Z,75.6
2018-08-12T02:15:16.795Z,75.2
2018-08-12T02:16:17.451Z,75.3
2018-08-12T02:17:16.711Z,75.3
2018-08-12T02:18:16.984Z,76.1
2018-08-12T02:19:16.274Z,76.1
2018-08-12T02:20:16.558Z,76.5
2018-08-12T02:21:16.603Z,76.5
2018-08-12T02:22:16.885Z,76.5
2018-08-12T02:23:17.164Z,76.8
2018-08-12T02:24:16.431Z,77.0
2018-08-12T02:25:16.704Z,77.1
2018-08-12T02:26:16.984Z,77.1
2018-08-12T02:27:17.250Z,76.7
2018-08-12T02:28:16.521Z,76.8
2018-08-12T02:29:16.788Z,76.9
2018-08-12T02:30:17.085Z,77.4
2018-08-12T02:31:17.377Z,77.0
2018-08-12T02:32:16.662Z,77.0
2018-08-12T02:33:16.938Z,77.2
2018-08-12T02:34:17.210Z,76.9
2018-08-12T02:35:16.483Z,77.0
2018-08-12T02:36:16.763Z,76.9
2018-08-12T02:37:17.049Z,77.0
2018-08-12T02:38:16.326Z,77.2
2018-08-12T02:39:16.599Z,77.3
2018-08-12T02:40:16.885Z,77.3
2018-08-12T02:41:16.943Z,77.2
2018-08-12T02:42:17.222Z,76.8
2018-08-12T02:43:16.504Z,76.7
2018-08-12T02:44:16.771Z,77.0
2018-08-12T02:45:17.044Z,77.4
2018-08-12T02:46:16.305Z,77.5
2018-08-12T02:47:16.922Z,77.6
2018-08-12T02:48:17.197Z,77.7
2018-08-12T02:49:16.470Z,77.7
2018-08-12T02:50:16.732Z,77.8
2018-08-12T02:51:16.785Z,77.6
2018-08-12T02:52:17.060Z,77.8
2018-08-12T02:53:16.328Z,77.7
2018-08-12T02:54:16.601Z,77.4
2018-08-12T02:55:16.883Z,77.4
2018-08-12T02:56:17.160Z,77.6
2018-08-12T02:57:16.440Z,77.7
2018-08-12T02:58:17.333Z,77.6
2018-08-12T02:59:16.606Z,77.9
2018-08-12T03:00:16.908Z,77.8
2018-08-12T03:01:16.931Z,78.0
2018-08-12T03:02:17.234Z,77.8
2018-08-12T03:03:16.512Z,77.7
2018-08-12T03:04:16.791Z,77.8
2018-08-12T03:05:17.083Z,78.1
2018-08-12T03:06:16.353Z,78.3
2018-08-12T03:07:16.635Z,78.3
2018-08-12T03:08:16.937Z,78.9
2018-08-12T03:09:17.209Z,78.5
2018-08-12T03:10:16.490Z,78.2
2018-08-12T03:11:16.529Z,77.9
2018-08-12T03:12:16.806Z,78.0
2018-08-12T03:13:17.298Z,77.8
2018-08-12T03:14:16.583Z,77.8
2018-08-12T03:15:16.857Z,78.1
2018-08-12T03:16:17.128Z,78.3
2018-08-12T03:17:16.395Z,78.3
2018-08-12T03:18:16.667Z,78.8
2018-08-12T03:19:16.931Z,78.8
2018-08-12T03:20:17.227Z,78.4
2018-08-12T03:21:16.261Z,78.6
2018-08-12T03:22:16.579Z,78.3
2018-08-12T03:23:16.854Z,78.3
2018-08-12T03:24:17.125Z,78.3
2018-08-12T03:25:16.409Z,78.6
2018-08-12T03:26:16.686Z,78.9
2018-08-12T03:27:16.975Z,78.9
2018-08-12T03:28:17.243Z,78.8
2018-08-12T03:29:16.508Z,79.0
2018-08-12T03:30:16.940Z,78.8
2018-08-12T03:31:16.834Z,78.8
2018-08-12T03:32:17.390Z,78.9
2018-08-12T03:33:16.666Z,78.8
2018-08-12T03:34:16.933Z,78.6
2018-08-12T03:35:17.209Z,78.6
2018-08-12T03:36:16.483Z,78.5
2018-08-12T03:37:16.758Z,78.3
2018-08-12T03:38:17.022Z,78.4
2018-08-12T03:39:16.296Z,78.4
2018-08-12T03:40:16.593Z,78.7
2018-08-12T03:41:16.639Z,78.6
2018-08-12T03:42:16.903Z,78.5
2018-08-12T03:43:17.173Z,78.7
2018-08-12T03:44:16.447Z,78.8
2018-08-12T03:45:16.723Z,78.7
2018-08-12T03:46:17.001Z,78.7
2018-08-12T03:47:16.267Z,79.0
2018-08-12T03:48:16.542Z,78.5
2018-08-12T03:49:16.810Z,78.6
2018-08-12T03:50:17.085Z,78.8
2018-08-12T03:51:17.127Z,79.1
2018-08-12T03:52:16.398Z,79.1
2018-08-12T03:53:16.662Z,79.3
2018-08-12T03:54:16.941Z,79.5
2018-08-12T03:55:17.219Z,79.3
2018-08-12T03:56:16.481Z,79.1
2018-08-12T03:57:16.745Z,79.2
2018-08-12T03:58:17.017Z,79.3
2018-08-12T03:59:16.279Z,79.1
2018-08-12T04:00:16.566Z,79.2
2018-08-12T04:01:16.600Z,79.1
2018-08-12T04:02:16.969Z,79.0
2018-08-12T04:03:16.309Z,79.1
2018-08-12T04:04:16.583Z,79.2
2018-08-12T04:05:16.852Z,79.7
2018-08-12T04:06:17.122Z,80.0
2018-08-12T04:07:16.392Z,80.2
2018-08-12T04:08:16.658Z,79.4
2018-08-12T04:09:16.928Z,79.3
2018-08-12T04:10:17.229Z,79.2
2018-08-12T04:11:17.243Z,79.2
2018-08-12T04:12:16.510Z,79.2
2018-08-12T04:13:16.772Z,79.2
2018-08-12T04:14:17.035Z,79.3
2018-08-12T04:15:16.309Z,79.7
2018-08-12T04:16:16.577Z,79.8
2018-08-12T04:17:16.853Z,79.8
2018-08-12T04:18:17.117Z,80.0
2018-08-12T04:19:16.394Z,79.9
2018-08-12T04:20:16.660Z,79.9
2018-08-12T04:21:16.707Z,79.8
2018-08-12T04:22:16.989Z,79.7
2018-08-12T04:23:17.254Z,79.5
2018-08-12T04:24:16.524Z,79.4
2018-08-12T04:25:16.811Z,79.5
2018-08-12T04:26:17.085Z,79.4
2018-08-12T04:27:16.344Z,79.3
2018-08-12T04:28:16.603Z,79.4
2018-08-12T04:29:16.867Z,79.3
2018-08-12T04:30:17.137Z,79.5
2018-08-12T04:31:17.189Z,79.4
2018-08-12T04:32:16.465Z,79.2
2018-08-12T04:33:16.736Z,79.3
2018-08-12T04:34:17.006Z,79.2
2018-08-12T04:35:16.283Z,78.9
2018-08-12T04:36:16.545Z,78.9
2018-08-12T04:37:16.810Z,78.8
2018-08-12T04:38:17.403Z,78.8
2018-08-12T04:39:16.671Z,78.8
2018-08-12T04:40:16.947Z,78.7
2018-08-12T04:41:16.982Z,78.4
2018-08-12T04:42:17.256Z,78.4
2018-08-12T04:43:16.524Z,78.6
2018-08-12T04:44:16.805Z,78.5
2018-08-12T04:45:17.082Z,78.2
2018-08-12T04:46:16.342Z,77.7
2018-08-12T04:47:16.610Z,77.5
2018-08-12T04:48:16.880Z,77.4
2018-08-12T04:49:17.154Z,77.1
2018-08-12T04:50:16.438Z,76.7
2018-08-12T04:51:16.491Z,76.8
2018-08-12T04:52:16.752Z,76.7
2018-08-12T04:53:17.022Z,76.7
2018-08-12T04:54:16.291Z,76.5
2018-08-12T04:55:16.563Z,76.8
2018-08-12T04:56:16.827Z,76.7
2018-08-12T04:57:17.103Z,77.1
2018-08-12T04:58:16.364Z,77.2
2018-08-12T04:59:16.631Z,77.0
2018-08-12T05:00:16.894Z,76.6
2018-08-12T05:01:16.951Z,76.8
2018-08-12T05:02:17.222Z,76.7
2018-08-12T05:03:16.489Z,76.2
2018-08-12T05:04:16.749Z,75.6
2018-08-12T05:05:17.019Z,75.8
2018-08-12T05:06:16.290Z,75.9
2018-08-12T05:07:16.565Z,75.9
2018-08-12T05:08:16.834Z,75.8
2018-08-12T05:09:17.105Z,75.6
2018-08-12T05:10:16.380Z,75.7
2018-08-12T05:11:16.444Z,75.3
2018-08-12T05:12:16.707Z,75.1
2018-08-12T05:13:16.987Z,75.2
2018-08-12T05:14:17.260Z,75.0
2018-08-12T05:15:16.536Z,74.8
2018-08-12T05:16:16.803Z,74.6
2018-08-12T05:17:17.067Z,74.2
2018-08-12T05:18:16.335Z,74.2
2018-08-12T05:19:16.625Z,74.2
2018-08-12T05:20:16.915Z,73.8
2018-08-12T05:21:16.954Z,73.8
2018-08-12T05:22:17.238Z,73.5
2018-08-12T05:23:16.516Z,74.0
2018-08-12T05:24:16.792Z,73.8
2018-08-12T05:25:17.101Z,73.8
2018-08-12T05:26:16.368Z,73.8
2018-08-12T05:27:16.638Z,73.8
2018-08-12T05:28:16.909Z,73.5
2018-08-12T05:29:17.178Z,73.1
2018-08-12T05:30:16.453Z,73.0
2018-08-12T05:31:16.513Z,72.8
2018-08-12T05:32:16.776Z,72.4
2018-08-12T05:33:17.033Z,72.5
2018-08-12T05:34:16.311Z,72.2
2018-08-12T05:35:16.618Z,72.1
2018-08-12T05:36:17.218Z,71.8
2018-08-12T05:37:16.531Z,72.8
2018-08-12T05:38:16.802Z,72.6
2018-08-12T05:39:17.059Z,72.2
2018-08-12T05:40:16.327Z,72.2
2018-08-12T05:41:16.377Z,72.0
2018-08-12T05:42:16.653Z,71.8
2018-08-12T05:43:16.913Z,71.4
2018-08-12T05:44:17.178Z,71.4
2018-08-12T05:45:16.451Z,71.2
2018-08-12T05:46:16.729Z,71.2
2018-08-12T05:47:16.998Z,70.8
2018-08-12T05:48:16.282Z,70.9
2018-08-12T05:49:16.557Z,70.5
2018-08-12T05:50:16.827Z,69.5
2018-08-12T05:51:16.912Z,69.5
2018-08-12T05:52:17.199Z,69.4
2018-08-12T05:53:16.468Z,69.2
2018-08-12T05:54:16.726Z,68.8
2018-08-12T05:55:16.998Z,68.5
2018-08-12T05:56:16.259Z,68.7
2018-08-12T05:57:16.722Z,68.5
2018-08-12T05:58:17.094Z,68.0
2018-08-12T05:59:16.359Z,67.8
2018-08-12T06:00:16.666Z,67.5
2018-08-12T06:01:16.686Z,66.9
2018-08-12T06:02:16.955Z,67.0
2018-08-12T06:03:17.370Z,66.6
2018-08-12T06:04:16.640Z,66.5
2018-08-12T06:05:16.906Z,66.2
2018-08-12T06:06:17.186Z,66.0
2018-08-12T06:07:16.452Z,64.8
2018-08-12T06:08:16.709Z,65.0
2018-08-12T06:09:17.313Z,64.8
2018-08-12T06:10:16.587Z,64.8
2018-08-12T06:11:16.642Z,64.7
2018-08-12T06:12:16.911Z,64.5
2018-08-12T06:13:17.185Z,64.0
2018-08-12T06:14:16.449Z,64.2
2018-08-12T06:15:16.737Z,63.6
2018-08-12T06:16:16.995Z,63.3
2018-08-12T06:17:16.330Z,62.8
2018-08-12T06:18:16.617Z,62.2
2018-08-12T06:19:16.891Z,62.1
2018-08-12T06:20:17.185Z,61.9
2018-08-12T06:21:17.217Z,61.9
2018-08-12T06:22:16.478Z,61.6
2018-08-12T06:23:16.744Z,61.4
2018-08-12T06:24:17.007Z,61.0
2018-08-12T06:25:16.266Z,60.4
2018-08-12T06:26:16.527Z,60.2
2018-08-12T06:27:16.794Z,60.2
2018-08-12T06:28:17.059Z,59.7
2018-08-12T06:29:16.319Z,59.4
2018-08-12T06:30:16.604Z,59.3
2018-08-12T06:31:16.657Z,58.5
2018-08-12T06:32:16.915Z,58.0
2018-08-12T06:33:17.186Z,57.4
2018-08-12T06:34:16.530Z,57.2
2018-08-12T06:35:16.818Z,57.0
2018-08-12T06:36:17.092Z,56.6
2018-08-12T06:37:16.375Z,55.9
2018-08-12T06:38:16.648Z,54.8
2018-08-12T06:39:16.914Z,54.1
2018-08-12T06:40:17.489Z,53.0
2018-08-12T06:41:17.244Z,52.7
2018-08-12T06:42:16.511Z,52.3
2018-08-12T06:43:16.776Z,51.5
2018-08-12T06:44:17.044Z,51.0
2018-08-12T06:45:16.319Z,50.4
2018-08-12T06:46:16.642Z,50.0
2018-08-12T06:47:16.980Z,49.5
2018-08-12T06:48:17.251Z,49.3
2018-08-12T06:49:16.516Z,49.4
2018-08-12T06:50:16.789Z,49.0
2018-08-12T06:51:16.841Z,48.5
2018-08-12T06:52:17.109Z,48.3
2018-08-12T06:53:16.369Z,47.4
2018-08-12T06:54:16.633Z,47.5
2018-08-12T06:55:16.901Z,47.1
2018-08-12T06:56:17.178Z,46.7
2018-08-12T06:57:16.456Z,47.8
2018-08-12T06:58:16.721Z,48.5
2018-08-12T06:59:16.993Z,48.3
2018-08-12T07:00:16.282Z,48.0
2018-08-12T07:01:16.333Z,48.3
2018-08-12T07:02:16.829Z,47.5
2018-08-12T07:03:17.089Z,46.5
2018-08-12T07:04:16.348Z,45.9
2018-08-12T07:05:16.624Z,45.7
2018-08-12T07:06:16.900Z,45.7
2018-08-12T07:07:17.167Z,45.3
2018-08-12T07:08:16.432Z,45.2
2018-08-12T07:09:16.706Z,46.1
2018-08-12T07:10:16.978Z,46.5
2018-08-12T07:11:17.010Z,46.1
2018-08-12T07:12:16.293Z,45.6
2018-08-12T07:13:16.560Z,45.6
2018-08-12T07:14:16.890Z,45.0
2018-08-12T07:15:17.201Z,44.8
2018-08-12T07:16:16.476Z,44.8
2018-08-12T07:17:16.975Z,43.8
2018-08-12T07:18:17.242Z,44.0
2018-08-12T07:19:16.502Z,43.9
2018-08-12T07:20:16.769Z,44.0
2018-08-12T07:21:16.807Z,43.9
2018-08-12T07:22:17.093Z,42.4
2018-08-12T07:23:16.353Z,41.8
2018-08-12T07:24:16.621Z,42.5
2018-08-12T07:25:16.912Z,42.5
2018-08-12T07:26:17.760Z,42.0
2018-08-12T07:27:17.035Z,41.3
2018-08-12T07:28:16.303Z,42.2
2018-08-12T07:29:16.573Z,42.5
2018-08-12T07:30:16.852Z,42.7
2018-08-12T07:31:16.876Z,42.7
2018-08-12T07:32:17.412Z,43.8
2018-08-12T07:33:16.674Z,43.7
2018-08-12T07:34:16.939Z,42.9
2018-08-12T07:35:17.207Z,42.1
2018-08-12T07:36:16.470Z,40.9
2018-08-12T07:37:16.733Z,42.0
2018-08-12T07:38:17.009Z,41.2
2018-08-12T07:39:16.278Z,40.7
2018-08-12T07:40:16.559Z,41.4
2018-08-12T07:41:16.609Z,41.9
2018-08-12T07:42:16.882Z,40.9
2018-08-12T07:43:17.150Z,41.0
2018-08-12T07:44:16.428Z,39.9
2018-08-12T07:45:16.699Z,38.5
2018-08-12T07:46:16.955Z,37.8
2018-08-12T07:47:17.231Z,37.5
2018-08-12T07:48:16.505Z,37.8
2018-08-12T07:49:16.775Z,38.6
2018-08-12T07:50:17.057Z,38.2
2018-08-12T07:51:17.095Z,38.1
2018-08-12T07:52:16.360Z,37.7
2018-08-12T07:53:16.639Z,38.0
2018-08-12T07:54:16.912Z,38.3
2018-08-12T07:55:17.198Z,37.6
2018-08-12T07:56:16.466Z,37.5
2018-08-12T07:57:16.743Z,37.5
2018-08-12T07:58:17.020Z,37.2
2018-08-12T07:59:16.275Z,37.0
2018-08-12T08:00:16.559Z,36.4
2018-08-12T08:01:16.589Z,35.8
2018-08-12T08:02:16.867Z,37.4
2018-08-12T08:03:17.134Z,37.9
2018-08-12T08:04:16.390Z,37.6
2018-08-12T08:05:16.672Z,38.0
2018-08-12T08:06:17.116Z,38.0
2018-08-12T08:07:16.430Z,37.6
2018-08-12T08:08:16.703Z,37.1
2018-08-12T08:09:16.977Z,36.4
2018-08-12T08:10:17.250Z,35.2
2018-08-12T08:11:16.287Z,34.7
2018-08-12T08:12:16.553Z,34.2
2018-08-12T08:13:16.817Z,34.6
2018-08-12T08:14:17.086Z,33.7
2018-08-12T08:15:16.346Z,34.0
2018-08-12T08:16:16.607Z,34.2
2018-08-12T08:17:16.869Z,33.9
2018-08-12T08:18:17.147Z,33.6
2018-08-12T08:19:16.416Z,33.5
2018-08-12T08:20:16.714Z,32.9
2018-08-12T08:21:16.756Z,33.3
2018-08-12T08:22:17.025Z,34.0
2018-08-12T08:23:16.299Z,33.6
2018-08-12T08:24:16.571Z,33.0
2018-08-12T08:25:16.885Z,34.2
2018-08-12T08:26:17.151Z,34.6
2018-08-12T08:27:16.411Z,34.5
2018-08-12T08:28:16.684Z,34.3
2018-08-12T08:29:16.955Z,34.4
2018-08-12T08:30:17.231Z,33.8
2018-08-12T08:31:16.392Z,33.8
2018-08-12T08:32:16.784Z,33.8
2018-08-12T08:33:17.152Z,33.2
2018-08-12T08:34:16.414Z,32.8
2018-08-12T08:35:16.678Z,32.4
2018-08-12T08:36:16.944Z,31.8
2018-08-12T08:37:17.212Z,32.0
2018-08-12T08:38:16.484Z,32.5
2018-08-12T08:39:16.743Z,34.0
2018-08-12T08:40:17.037Z,32.4
2018-08-12T08:41:17.052Z,31.8
2018-08-12T08:42:16.322Z,31.5
2018-08-12T08:43:16.591Z,30.6
2018-08-12T08:44:16.855Z,31.0
2018-08-12T08:45:17.126Z,31.5
2018-08-12T08:46:16.387Z,31.0
2018-08-12T08:47:16.660Z,30.4
2018-08-12T08:48:16.927Z,30.7
2018-08-12T08:49:17.200Z,29.9
2018-08-12T08:50:16.483Z,29.9
2018-08-12T08:51:16.531Z,30.2
2018-08-12T08:52:16.815Z,29.9
2018-08-12T08:53:17.103Z,29.5
2018-08-12T08:54:16.380Z,28.8
2018-08-12T08:55:16.672Z,29.2
2018-08-12T08:56:16.935Z,28.9
2018-08-12T08:57:17.199Z,28.1
2018-08-12T08:58:16.465Z,29.1
2018-08-12T08:59:16.752Z,28.4
2018-08-12T09:00:17.041Z,28.5
2018-08-12T09:01:17.174Z,29.4
2018-08-12T09:02:16.468Z,29.6
2018-08-12T09:03:16.740Z,30.1
2018-08-12T09:04:17.022Z,29.9
2018-08-12T09:05:16.305Z,29.1
2018-08-12T09:06:16.574Z,29.0
2018-08-12T09:07:16.843Z,28.4
2018-08-12T09:08:17.517Z,28.1
2018-08-12T09:09:17.790Z,26.7
2018-08-12T09:10:16.392Z,27.3
2018-08-12T09:11:16.445Z,29.1
2018-08-12T09:12:16.704Z,29.5
2018-08-12T09:13:16.973Z,29.6
2018-08-12T09:14:17.293Z,29.2
2018-08-12T09:15:16.576Z,28.4
2018-08-12T09:16:16.854Z,28.0
2018-08-12T09:17:17.121Z,27.0
2018-08-12T09:18:16.710Z,27.1
2018-08-12T09:19:17.076Z,26.6
2018-08-12T09:20:16.355Z,27.0
2018-08-12T09:21:16.415Z,28.0
2018-08-12T09:22:16.698Z,29.1
2018-08-12T09:23:16.962Z,28.9
2018-08-12T09:24:17.251Z,28.2
2018-08-12T09:25:16.545Z,27.8
2018-08-12T09:26:16.820Z,27.9
2018-08-12T09:27:17.091Z,27.2
2018-08-12T09:28:16.362Z,27.1
2018-08-12T09:29:16.637Z,26.9
2018-08-12T09:30:16.927Z,26.7
2018-08-12T09:31:16.958Z,26.0
2018-08-12T09:32:17.219Z,26.2
2018-08-12T09:33:16.495Z,26.8
2018-08-12T09:34:16.757Z,27.1
2018-08-12T09:35:17.040Z,27.6
2018-08-12T09:36:16.306Z,28.0
2018-08-12T09:37:16.575Z,28.4
2018-08-12T09:38:16.842Z,27.8
2018-08-12T09:39:17.123Z,27.8
2018-08-12T09:40:16.404Z,27.3
2018-08-12T09:41:16.455Z,27.4
2018-08-12T09:42:16.726Z,27.5
2018-08-12T09:43:16.995Z,28.1
2018-08-12T09:44:16.263Z,27.6
2018-08-12T09:45:16.554Z,28.4
2018-08-12T09:46:16.825Z,30.2
2018-08-12T09:47:17.091Z,30.1
2018-08-12T09:48:16.362Z,29.6
2018-08-12T09:49:16.628Z,29.5
2018-08-12T09:50:16.903Z,29.8
2018-08-12T09:51:17.041Z,29.8
2018-08-12T09:52:16.315Z,29.6
2018-08-12T09:53:16.580Z,29.1
2018-08-12T09:54:16.848Z,28.9
2018-08-12T09:55:17.128Z,27.7
2018-08-12T09:56:16.395Z,27.7
2018-08-12T09:57:16.650Z,28.1
2018-08-12T09:58:16.921Z,28.4
2018-08-12T09:59:17.194Z,28.9
2018-08-12T10:00:16.692Z,28.4
2018-08-12T10:01:16.540Z,27.2
2018-08-12T10:02:16.813Z,27.6
2018-08-12T10:03:17.085Z,27.6
2018-08-12T10:04:16.372Z,28.5
2018-08-12T10:05:16.654Z,28.5
2018-08-12T10:06:16.922Z,28.4
2018-08-12T10:07:17.295Z,28.6
2018-08-12T10:08:16.575Z,27.7
2018-08-12T10:09:16.842Z,28.2
2018-08-12T10:10:17.124Z,29.1
2018-08-12T10:11:17.439Z,28.4
2018-08-12T10:12:16.705Z,28.3
2018-08-12T10:13:16.972Z,27.9
2018-08-12T10:14:17.243Z,27.9
2018-08-12T10:15:16.568Z,28.4
2018-08-12T10:16:16.830Z,29.0
2018-08-12T10:17:17.097Z,28.6
2018-08-12T10:18:16.363Z,28.4
2018-08-12T10:19:16.633Z,28.6
2018-08-12T10:20:16.906Z,29.4
2018-08-12T10:21:16.961Z,28.6
2018-08-12T10:22:17.219Z,27.8
2018-08-12T10:23:16.486Z,27.7
2018-08-12T10:24:16.758Z,27.1
2018-08-12T10:25:17.031Z,27.6
2018-08-12T10:26:16.294Z,28.3
2018-08-12T10:27:16.567Z,28.0
2018-08-12T10:28:16.837Z,28.4
2018-08-12T10:29:17.252Z,28.8
2018-08-12T10:30:16.603Z,28.7
2018-08-12T10:31:16.657Z,28.7
2018-08-12T10:32:16.930Z,29.1
2018-08-12T10:33:17.208Z,28.9
2018-08-12T10:34:16.471Z,28.8
2018-08-12T10:35:16.740Z,28.2
2018-08-12T10:36:17.007Z,27.2
2018-08-12T10:37:16.267Z,27.2
2018-08-12T10:38:16.533Z,27.0
2018-08-12T10:39:16.800Z,26.7
2018-08-12T10:40:17.077Z,27.9
2018-08-12T10:41:17.134Z,27.8
2018-08-12T10:42:16.397Z,27.1
2018-08-12T10:43:16.670Z,26.8
2018-08-12T10:44:17.050Z,26.2
2018-08-12T10:45:16.347Z,26.1
2018-08-12T10:46:16.613Z,26.1
2018-08-12T10:47:16.896Z,26.5
2018-08-12T10:48:17.161Z,26.1
2018-08-12T10:49:16.427Z,26.9
2018-08-12T10:50:16.712Z,27.2
2018-08-12T10:51:16.763Z,26.9
2018-08-12T10:52:17.033Z,27.0
2018-08-12T10:53:16.309Z,26.6
2018-08-12T10:54:16.592Z,26.3
2018-08-12T10:55:16.860Z,27.0
2018-08-12T10:56:17.131Z,27.1
2018-08-12T10:57:16.402Z,27.8
2018-08-12T10:58:16.667Z,27.2
2018-08-12T10:59:16.965Z,26.8
2018-08-12T11:00:17.287Z,26.0
2018-08-12T11:01:16.291Z,25.6
2018-08-12T11:02:16.561Z,26.0
2018-08-12T11:03:16.840Z,26.6
2018-08-12T11:04:17.105Z,26.6
2018-08-12T11:05:16.383Z,26.2
2018-08-12T11:06:16.651Z,25.5
2018-08-12T11:07:16.998Z,25.5
2018-08-12T11:08:16.275Z,25.0
2018-08-12T11:09:16.556Z,24.9
2018-08-12T11:10:16.840Z,24.9
2018-08-12T11:11:16.876Z,24.9
2018-08-12T11:12:17.254Z,25.0
2018-08-12T11:13:16.526Z,24.3
2018-08-12T11:14:16.793Z,24.8
2018-08-12T11:15:17.058Z,25.2
2018-08-12T11:16:16.327Z,24.8
2018-08-12T11:17:16.588Z,24.8
2018-08-12T11:18:16.850Z,25.9
2018-08-12T11:19:17.122Z,25.3
2018-08-12T11:20:16.435Z,25.9
2018-08-12T11:21:16.444Z,26.3
2018-08-12T11:22:16.716Z,25.8
2018-08-12T11:23:16.981Z,25.6
2018-08-12T11:24:17.250Z,25.1
2018-08-12T11:25:16.518Z,25.3
2018-08-12T11:26:16.784Z,24.9
2018-08-12T11:27:17.153Z,24.8
2018-08-12T11:28:16.416Z,24.6
2018-08-12T11:29:16.684Z,24.4
2018-08-12T11:30:16.972Z,24.5
2018-08-12T11:31:17.030Z,25.0
2018-08-12T11:32:16.296Z,24.8
2018-08-12T11:33:16.568Z,24.8
2018-08-12T11:34:16.833Z,25.1
2018-08-12T11:35:17.122Z,25.0
2018-08-12T11:36:16.398Z,24.6
2018-08-12T11:37:16.667Z,24.3
2018-08-12T11:38:16.937Z,24.4
2018-08-12T11:39:17.194Z,24.5
2018-08-12T11:40:16.489Z,24.6
2018-08-12T11:41:16.777Z,24.5
2018-08-12T11:42:17.079Z,24.7
2018-08-12T11:43:16.345Z,24.4
2018-08-12T11:44:16.621Z,24.9
2018-08-12T11:45:16.892Z,24.8
2018-08-12T11:46:17.173Z,24.8
2018-08-12T11:47:16.443Z,25.6
2018-08-12T11:48:16.720Z,25.4
2018-08-12T11:49:16.986Z,24.6
2018-08-12T11:50:16.237Z,24.9
2018-08-12T11:51:16.306Z,24.9
2018-08-12T11:52:16.576Z,24.9
2018-08-12T11:53:16.839Z,25.2
2018-08-12T11:54:17.115Z,25.8
2018-08-12T11:55:16.389Z,25.7
2018-08-12T11:56:16.648Z,26.0
2018-08-12T11:57:16.927Z,26.3
2018-08-12T11:58:17.165Z,26.2
2018-08-12T11:59:16.431Z,26.1
2018-08-12T12:00:16.712Z,25.5
2018-08-12T12:01:16.746Z,25.6
2018-08-12T12:02:17.355Z,26.1
2018-08-12T12:03:16.742Z,26.6
2018-08-12T12:04:17.112Z,26.4
2018-08-12T12:05:16.394Z,26.2
2018-08-12T12:06:16.671Z,26.4
2018-08-12T12:07:16.939Z,26.5
2018-08-12T12:08:17.223Z,26.8
2018-08-12T12:09:16.499Z,26.9
2018-08-12T12:10:16.782Z,27.1
2018-08-12T12:11:16.810Z,27.1
2018-08-12T12:12:17.069Z,26.8
2018-08-12T12:13:16.311Z,27.2
2018-08-12T12:14:16.573Z,26.9
2018-08-12T12:15:16.860Z,27.1
2018-08-12T12:16:17.130Z,26.9
2018-08-12T12:17:16.404Z,27.1
2018-08-12T12:18:16.687Z,27.7
2018-08-12T12:19:16.952Z,27.2
2018-08-12T12:20:17.225Z,27.5
2018-08-12T12:21:16.276Z,27.5
2018-08-12T12:22:16.545Z,27.8
2018-08-12T12:23:16.795Z,27.7
2018-08-12T12:24:17.057Z,27.8
2018-08-12T12:25:16.332Z,27.6
2018-08-12T12:26:16.609Z,27.6
2018-08-12T12:27:16.875Z,27.8
2018-08-12T12:28:17.152Z,27.5
2018-08-12T12:29:16.420Z,27.6
2018-08-12T12:30:16.721Z,27.6
2018-08-12T12:31:16.748Z,27.8
2018-08-12T12:32:17.021Z,27.8
2018-08-12T12:33:16.285Z,27.5
2018-08-12T12:34:16.566Z,27.6
2018-08-12T12:35:16.841Z,27.6
2018-08-12T12:36:17.107Z,27.2
2018-08-12T12:37:16.371Z,27.0
2018-08-12T12:38:16.619Z,27.2
2018-08-12T12:39:16.897Z,27.5
2018-08-12T12:40:17.162Z,27.5
2018-08-12T12:41:17.223Z,27.4
2018-08-12T12:42:16.490Z,27.5
2018-08-12T12:43:16.751Z,26.9
2018-08-12T12:44:16.997Z,27.5
2018-08-12T12:45:16.252Z,27.6
2018-08-12T12:46:16.514Z,28.1
2018-08-12T12:47:16.776Z,28.0
2018-08-12T12:48:17.046Z,27.8
2018-08-12T12:49:16.339Z,27.6
2018-08-12T12:50:17.055Z,27.6
2018-08-12T12:51:16.660Z,27.1
2018-08-12T12:52:16.898Z,27.0
2018-08-12T12:53:17.152Z,26.8
2018-08-12T12:54:16.420Z,26.8
2018-08-12T12:55:16.683Z,26.9
2018-08-12T12:56:17.084Z,27.2
2018-08-12T12:57:16.370Z,26.4
2018-08-12T12:58:16.633Z,26.7
2018-08-12T12:59:16.896Z,26.9
2018-08-12T13:00:17.176Z,27.4
2018-08-12T13:01:17.233Z,27.0
2018-08-12T13:02:16.503Z,27.5
2018-08-12T13:03:16.766Z,27.3
2018-08-12T13:04:17.034Z,27.2
2018-08-12T13:05:16.329Z,27.5
2018-08-12T13:06:16.594Z,27.6
2018-08-12T13:07:16.855Z,28.1
2018-08-12T13:08:17.115Z,28.2
2018-08-12T13:09:16.375Z,27.8
2018-08-12T13:10:16.673Z,27.5
2018-08-12T13:11:16.753Z,27.4
2018-08-12T13:12:17.032Z,27.2
2018-08-12T13:13:16.298Z,27.6
2018-08-12T13:14:16.578Z,27.5
2018-08-12T13:15:16.865Z,28.2
2018-08-12T13:16:17.144Z,28.2
2018-08-12T13:17:16.411Z,27.8
2018-08-12T13:18:16.684Z,27.7